createdAt,value
2022-11-16T00:01:05.952Z,4.05
2022-11-16T00:03:36.810Z,4.32
2022-11-16T00:06:07.515Z,3.97
2022-11-16T00:08:38.557Z,3.53
2022-11-16T00:11:09.659Z,4.60
2022-11-16T00:13:39.719Z,4.70
2022-11-16T00:16:10.446Z,3.88
2022-11-16T00:18:40.259Z,4.95
2022-11-16T00:21:10.171Z,3.70
2022-11-16T00:23:39.597Z,3.83
2022-11-16T00:26:10.838Z,4.57
2022-11-16T00:28:39.374Z,3.55
2022-11-16T00:31:09.057Z,3.20
2022-11-16T00:33:40.432Z,4.70
2022-11-16T00:36:12.408Z,4.30
2022-11-16T00:38:41.440Z,4.15
2022-11-16T00:41:10.876Z,3.90
2022-11-16T00:43:39.531Z,3.88
2022-11-16T00:46:08.178Z,3.23
2022-11-16T00:48:36.813Z,3.35
2022-11-16T00:51:07.387Z,2.95
2022-11-16T00:53:37.292Z,4.20
2022-11-16T00:56:06.393Z,3.55
2022-11-16T00:58:35.054Z,3.77
2022-11-16T01:01:07.059Z,3.20
2022-11-16T01:03:36.375Z,2.80
2022-11-16T01:06:08.988Z,3.35
2022-11-16T01:08:39.113Z,4.22
2022-11-16T01:11:26.293Z,3.00
2022-11-16T01:13:55.904Z,6.25
2022-11-16T01:16:25.614Z,3.25
2022-11-16T01:18:56.158Z,3.10
2022-11-16T01:21:26.354Z,4.43
2022-11-16T01:23:55.805Z,3.73
2022-11-16T01:26:24.446Z,3.65
2022-11-16T01:28:52.999Z,3.47
2022-11-16T01:31:22.080Z,2.88
2022-11-16T01:33:50.591Z,3.83
2022-11-16T01:36:19.034Z,3.87
2022-11-16T01:38:49.104Z,3.03
2022-11-16T01:41:20.838Z,8.93
2022-11-16T01:43:57.477Z,5.70
2022-11-16T01:46:27.144Z,4.43
2022-11-16T01:49:03.019Z,5.50
2022-11-16T01:51:32.813Z,6.28
2022-11-16T01:54:06.444Z,7.28
2022-11-16T01:56:37.200Z,9.48
2022-11-16T01:59:06.389Z,7.60
2022-11-16T02:01:35.188Z,7.90
2022-11-16T02:04:03.985Z,3.33
2022-11-16T02:06:57.293Z,3.05
2022-11-16T02:09:56.016Z,3.00
2022-11-16T02:12:58.092Z,3.55
2022-11-16T02:15:33.786Z,2.90
2022-11-16T02:18:19.894Z,2.80
2022-11-16T02:21:14.898Z,7.75
2022-11-16T02:24:12.348Z,3.00
2022-11-16T02:27:04.152Z,2.70
2022-11-16T02:29:39.379Z,3.47
2022-11-16T02:32:14.566Z,2.65
2022-11-16T02:34:47.641Z,3.08
2022-11-16T02:37:20.032Z,2.92
2022-11-16T02:39:53.267Z,2.90
2022-11-16T02:42:29.369Z,3.93
2022-11-16T02:45:01.289Z,2.67
2022-11-16T02:47:34.716Z,2.70
2022-11-16T02:50:08.342Z,3.47
2022-11-16T02:52:38.601Z,4.50
2022-11-16T02:55:08.892Z,2.80
2022-11-16T02:57:47.528Z,3.10
2022-11-16T03:00:24.058Z,2.67
2022-11-16T03:03:17.699Z,2.60
2022-11-16T03:05:52.590Z,3.05
2022-11-16T03:08:27.813Z,2.73
2022-11-16T03:11:19.982Z,3.30
2022-11-16T03:13:49.956Z,3.90
2022-11-16T03:16:26.306Z,4.05
2022-11-16T03:18:58.458Z,3.47
2022-11-16T03:21:33.772Z,3.57
2022-11-16T03:24:02.352Z,3.05
2022-11-16T03:26:42.969Z,4.28
2022-11-16T03:29:21.961Z,3.30
2022-11-16T03:31:58.788Z,2.70
2022-11-16T03:34:33.296Z,2.47
2022-11-16T03:37:04.706Z,2.70
2022-11-16T03:39:38.504Z,2.60
2022-11-16T03:42:14.122Z,4.50
2022-11-16T03:44:43.810Z,3.00
2022-11-16T03:47:14.282Z,2.87
2022-11-16T03:49:46.561Z,3.30
2022-11-16T03:52:17.049Z,3.42
2022-11-16T03:54:45.689Z,2.60
2022-11-16T03:57:18.120Z,4.78
2022-11-16T03:59:47.099Z,2.70
2022-11-16T04:02:16.974Z,3.00
2022-11-16T04:05:03.109Z,2.90
2022-11-16T04:07:48.866Z,2.65
2022-11-16T04:10:34.975Z,4.75
2022-11-16T04:13:22.427Z,2.70
2022-11-16T04:16:07.416Z,2.63
2022-11-16T04:18:54.940Z,2.88
2022-11-16T04:21:45.210Z,4.65
2022-11-16T04:24:18.649Z,3.47
2022-11-16T04:27:14.633Z,3.53
2022-11-16T04:29:43.680Z,3.42
2022-11-16T04:32:31.426Z,3.45
2022-11-16T04:35:19.104Z,3.95
2022-11-16T04:37:50.184Z,4.55
2022-11-16T04:40:20.288Z,3.10
2022-11-16T04:42:53.378Z,3.33
2022-11-16T04:45:40.704Z,3.17
2022-11-16T04:48:10.106Z,3.00
2022-11-16T04:50:41.957Z,4.03
2022-11-16T04:53:11.425Z,3.20
2022-11-16T04:55:40.199Z,2.95
2022-11-16T04:58:08.926Z,3.10
2022-11-16T05:00:37.390Z,2.90
2022-11-16T05:03:06.357Z,3.30
2022-11-16T05:05:34.916Z,3.77
2022-11-16T05:08:04.873Z,3.35
2022-11-16T05:10:33.390Z,2.92
2022-11-16T05:13:02.928Z,2.60
2022-11-16T05:15:31.408Z,4.05
2022-11-16T05:18:00.098Z,7.43
2022-11-16T05:20:45.883Z,7.47
2022-11-16T05:23:29.590Z,4.10
2022-11-16T05:25:58.148Z,4.57
2022-11-16T05:28:26.649Z,3.15
2022-11-16T05:30:55.145Z,4.57
2022-11-16T05:33:23.877Z,4.85
2022-11-16T05:35:52.734Z,3.20
2022-11-16T05:38:22.596Z,4.43
2022-11-16T05:40:51.042Z,5.05
2022-11-16T05:43:19.748Z,3.67
2022-11-16T05:45:48.260Z,3.70
2022-11-16T05:48:16.753Z,3.30
2022-11-16T05:50:45.534Z,4.75
2022-11-16T05:53:14.200Z,5.80
2022-11-16T05:55:44.122Z,6.73
2022-11-16T05:58:12.768Z,4.43
2022-11-16T06:00:41.256Z,4.55
2022-11-16T06:03:09.828Z,4.22
2022-11-16T06:05:40.696Z,6.05
2022-11-16T06:08:09.560Z,6.60
2022-11-16T06:10:38.121Z,5.32
2022-11-16T06:13:07.992Z,4.45
2022-11-16T06:15:40.050Z,6.38
2022-11-16T06:18:09.543Z,9.43
2022-11-16T06:20:40.996Z,6.33
2022-11-16T06:23:09.465Z,7.20
2022-11-16T06:25:40.292Z,4.80
2022-11-16T06:28:11.353Z,5.93
2022-11-16T06:30:41.246Z,5.95
2022-11-16T06:33:09.758Z,7.23
2022-11-16T06:35:38.466Z,7.97
2022-11-16T06:38:07.326Z,5.40
2022-11-16T06:40:35.803Z,6.57
2022-11-16T06:43:04.405Z,7.53
2022-11-16T06:45:34.246Z,5.90
2022-11-16T06:48:02.691Z,6.55
2022-11-16T06:50:31.206Z,5.63
2022-11-16T06:53:00.862Z,5.82
2022-11-16T06:55:29.649Z,5.18
2022-11-16T06:57:58.257Z,6.03
2022-11-16T07:00:28.085Z,6.30
2022-11-16T07:02:57.904Z,10.48
2022-11-16T07:05:26.383Z,6.63
2022-11-16T07:07:56.182Z,4.95
2022-11-16T07:10:25.586Z,4.30
2022-11-16T07:12:54.086Z,6.22
2022-11-16T07:15:22.546Z,7.20
2022-11-16T07:17:51.010Z,7.72
2022-11-16T07:20:21.367Z,8.65
2022-11-16T07:22:49.825Z,5.83
2022-11-16T07:25:18.570Z,5.28
2022-11-16T07:27:47.232Z,9.68
2022-11-16T07:30:16.956Z,5.25
2022-11-16T07:32:45.645Z,5.10
2022-11-16T07:35:14.121Z,5.63
2022-11-16T07:37:44.201Z,9.32
2022-11-16T07:40:13.386Z,5.82
2022-11-16T07:42:43.842Z,9.68
2022-11-16T07:45:12.949Z,4.18
2022-11-16T07:47:41.863Z,5.77
2022-11-16T07:50:11.278Z,4.35
2022-11-16T07:52:39.832Z,5.22
2022-11-16T07:55:10.275Z,5.97
2022-11-16T07:57:38.763Z,5.28
2022-11-16T08:00:09.487Z,4.90
2022-11-16T08:02:38.028Z,5.72
2022-11-16T08:05:08.226Z,6.05
2022-11-16T08:07:36.962Z,5.53
2022-11-16T08:10:06.903Z,6.35
2022-11-16T08:12:37.010Z,4.23
2022-11-16T08:15:06.355Z,7.10
2022-11-16T08:17:35.057Z,6.80
2022-11-16T08:20:03.570Z,5.75
2022-11-16T08:22:32.104Z,6.22
2022-11-16T08:25:00.595Z,6.17
2022-11-16T08:27:29.117Z,6.57
2022-11-16T08:29:59.025Z,5.50
2022-11-16T08:32:29.799Z,6.20
2022-11-16T08:34:58.326Z,6.57
2022-11-16T08:37:28.173Z,7.83
2022-11-16T08:39:56.899Z,6.32
2022-11-16T08:42:25.350Z,4.07
2022-11-16T08:44:53.834Z,7.18
2022-11-16T08:47:23.739Z,6.60
2022-11-16T08:49:52.222Z,3.57
2022-11-16T08:52:21.061Z,6.38
2022-11-16T08:54:49.755Z,6.15
2022-11-16T08:57:18.236Z,4.78
2022-11-16T08:59:46.734Z,6.45
2022-11-16T09:02:15.284Z,7.17
2022-11-16T09:04:45.437Z,6.07
2022-11-16T09:07:14.187Z,4.97
2022-11-16T09:09:42.671Z,7.43
2022-11-16T09:12:11.389Z,8.05
2022-11-16T09:14:40.080Z,6.47
2022-11-16T09:17:08.779Z,5.80
2022-11-16T09:19:37.242Z,8.48
2022-11-16T09:22:07.485Z,7.85
2022-11-16T09:24:36.237Z,8.30
2022-11-16T09:27:05.028Z,6.80
2022-11-16T09:29:33.614Z,7.35
2022-11-16T09:32:02.287Z,9.30
2022-11-16T09:34:30.764Z,5.78
2022-11-16T09:36:59.255Z,6.28
2022-11-16T09:39:32.451Z,5.63
2022-11-16T09:42:21.349Z,9.05
2022-11-16T09:45:08.765Z,8.07
2022-11-16T09:47:49.063Z,4.43
2022-11-16T09:50:37.389Z,6.00
2022-11-16T09:53:24.649Z,4.83
2022-11-16T09:55:56.580Z,6.72
2022-11-16T09:58:31.969Z,4.82
2022-11-16T10:01:07.366Z,5.53
2022-11-16T10:03:43.935Z,5.03
2022-11-16T10:06:22.757Z,7.40
2022-11-16T10:08:53.282Z,8.48
2022-11-16T10:11:46.706Z,4.82
2022-11-16T10:14:51.325Z,4.45
2022-11-16T10:17:35.105Z,5.93
2022-11-16T10:20:30.231Z,6.07
2022-11-16T10:23:13.343Z,7.85
2022-11-16T10:25:45.560Z,7.97
2022-11-16T10:29:06.264Z,5.80
2022-11-16T10:31:55.002Z,15.23
2022-11-16T10:34:27.425Z,6.83
2022-11-16T10:37:03.425Z,6.65
2022-11-16T10:39:34.604Z,9.15
2022-11-16T10:42:07.816Z,6.65
2022-11-16T10:44:44.062Z,5.80
2022-11-16T10:47:22.094Z,4.27
2022-11-16T10:49:57.925Z,7.22
2022-11-16T10:52:26.779Z,5.18
2022-11-16T10:54:55.484Z,7.05
2022-11-16T10:57:26.562Z,5.50
2022-11-16T10:59:56.787Z,8.40
2022-11-16T11:02:35.616Z,8.10
2022-11-16T11:05:09.392Z,7.43
2022-11-16T11:07:40.607Z,7.10
2022-11-16T11:10:32.207Z,8.45
2022-11-16T11:13:17.432Z,8.30
2022-11-16T11:15:48.122Z,6.07
2022-11-16T11:18:27.808Z,7.07
2022-11-16T11:21:10.211Z,6.68
2022-11-16T11:23:45.767Z,8.88
2022-11-16T11:26:36.664Z,6.23
2022-11-16T11:29:21.965Z,7.35
2022-11-16T11:31:55.596Z,8.15
2022-11-16T11:34:26.359Z,5.53
2022-11-16T11:36:57.826Z,5.88
2022-11-16T11:39:37.764Z,8.30
2022-11-16T11:42:22.375Z,5.78
2022-11-16T11:44:59.472Z,6.00
2022-11-16T11:47:57.914Z,5.70
2022-11-16T11:50:39.918Z,7.70
2022-11-16T11:53:16.738Z,5.07
2022-11-16T11:55:45.192Z,7.85
2022-11-16T11:58:19.307Z,6.80
2022-11-16T12:01:03.330Z,7.35
2022-11-16T12:04:15.607Z,7.20
2022-11-16T12:06:51.268Z,7.37
2022-11-16T12:09:34.904Z,6.65
2022-11-16T12:12:22.387Z,10.38
2022-11-16T12:15:08.118Z,9.05
2022-11-16T12:17:48.281Z,8.18
2022-11-16T12:20:40.008Z,7.00
2022-11-16T12:23:48.913Z,5.32
2022-11-16T12:26:27.762Z,4.88
2022-11-16T12:29:19.360Z,7.13
2022-11-16T12:32:19.135Z,9.40
2022-11-16T12:35:06.066Z,11.47
2022-11-16T12:37:44.848Z,7.75
2022-11-16T12:40:32.029Z,10.32
2022-11-16T12:43:09.665Z,14.38
2022-11-16T12:45:55.676Z,16.55
2022-11-16T12:48:46.517Z,14.57
2022-11-16T12:51:32.493Z,17.83
2022-11-16T12:54:31.775Z,13.57
2022-11-16T12:57:10.431Z,11.35
2022-11-16T13:00:02.634Z,9.93
2022-11-16T13:03:00.950Z,12.73
2022-11-16T13:05:48.436Z,10.80
2022-11-16T13:08:31.601Z,14.85
2022-11-16T13:11:08.306Z,15.68
2022-11-16T13:13:37.763Z,13.10
2022-11-16T13:16:08.739Z,12.77
2022-11-16T13:18:44.160Z,14.63
2022-11-16T13:21:32.753Z,15.05
2022-11-16T13:24:31.834Z,16.25
2022-11-16T13:27:17.729Z,15.88
2022-11-16T13:29:54.193Z,12.17
2022-11-16T13:32:35.062Z,9.60
2022-11-16T13:35:07.107Z,13.15
2022-11-16T13:37:49.925Z,12.50
2022-11-16T13:40:39.177Z,13.90
2022-11-16T13:43:19.335Z,12.13
2022-11-16T13:46:00.731Z,12.35
2022-11-16T13:48:34.797Z,12.88
2022-11-16T13:51:06.381Z,15.35
2022-11-16T13:54:37.845Z,20.50
2022-11-16T13:56:29.319Z,17.93
2022-11-16T13:59:00.486Z,15.38
2022-11-16T14:02:00.552Z,13.93
2022-11-16T14:04:43.352Z,14.70
2022-11-16T14:07:40.581Z,18.63
2022-11-16T14:10:09.448Z,21.67
2022-11-16T14:12:53.296Z,15.57
2022-11-16T14:15:26.848Z,13.25
2022-11-16T14:18:19.426Z,12.30
2022-11-16T14:20:59.800Z,12.93
2022-11-16T14:24:06.501Z,11.50
2022-11-16T14:26:49.565Z,12.90
2022-11-16T14:29:53.888Z,12.73
2022-11-16T14:32:27.208Z,14.82
2022-11-16T14:34:58.874Z,15.95
2022-11-16T14:37:35.572Z,18.67
2022-11-16T14:40:09.232Z,13.65
2022-11-16T14:43:09.881Z,13.75
2022-11-16T14:45:39.758Z,14.15
2022-11-16T14:48:19.075Z,13.77
2022-11-16T14:51:01.345Z,15.20
2022-11-16T14:53:30.797Z,14.85
2022-11-16T14:56:10.889Z,14.35
2022-11-16T14:58:39.478Z,13.65
2022-11-16T15:01:15.079Z,12.95
2022-11-16T15:03:56.923Z,12.53
2022-11-16T15:06:27.684Z,12.43
2022-11-16T15:09:01.040Z,8.75
2022-11-16T15:11:47.715Z,8.60
2022-11-16T15:14:24.004Z,8.45
2022-11-16T15:16:54.469Z,8.60
2022-11-16T15:19:25.949Z,9.00
2022-11-16T15:21:56.847Z,10.00
2022-11-16T15:24:31.726Z,6.43
2022-11-16T15:27:13.437Z,6.78
2022-11-16T15:29:41.985Z,6.80
2022-11-16T15:32:17.029Z,8.30
2022-11-16T15:34:49.413Z,7.57
2022-11-16T15:37:29.403Z,5.05
2022-11-16T15:39:59.234Z,7.95
2022-11-16T15:42:29.576Z,7.83
2022-11-16T15:45:00.502Z,7.22
2022-11-16T15:47:29.351Z,6.80
2022-11-16T15:49:59.233Z,5.88
2022-11-16T15:52:47.448Z,7.70
2022-11-16T15:55:27.743Z,10.07
2022-11-16T15:58:16.721Z,6.38
2022-11-16T16:00:49.731Z,6.75
2022-11-16T16:03:23.730Z,7.97
2022-11-16T16:05:55.300Z,8.73
2022-11-16T16:08:31.951Z,7.87
2022-11-16T16:11:09.974Z,7.28
2022-11-16T16:13:41.657Z,6.63
2022-11-16T16:16:32.519Z,5.25
2022-11-16T16:19:08.369Z,5.45
2022-11-16T16:21:46.078Z,5.05
2022-11-16T16:24:41.329Z,6.40
2022-11-16T16:27:15.843Z,6.20
2022-11-16T16:29:44.745Z,4.75
2022-11-16T16:32:20.885Z,4.30
2022-11-16T16:34:49.398Z,5.87
2022-11-16T16:37:19.485Z,7.15
2022-11-16T16:39:47.994Z,6.57
2022-11-16T16:42:18.536Z,4.60
2022-11-16T16:44:48.904Z,6.10
2022-11-16T16:47:20.787Z,6.47
2022-11-16T16:49:50.036Z,8.98
2022-11-16T16:52:19.966Z,5.82
2022-11-16T16:54:48.665Z,5.68
2022-11-16T16:57:19.152Z,5.80
2022-11-16T16:59:48.691Z,10.13
2022-11-16T17:02:18.341Z,7.13
2022-11-16T17:04:48.516Z,7.65
2022-11-16T17:07:17.476Z,6.90
2022-11-16T17:09:47.646Z,6.43
2022-11-16T17:12:16.391Z,7.68
2022-11-16T17:14:51.334Z,7.43
2022-11-16T17:17:20.411Z,7.55
2022-11-16T17:19:49.033Z,7.50
2022-11-16T17:22:17.522Z,10.25
2022-11-16T17:24:47.858Z,8.68
2022-11-16T17:27:16.439Z,10.13
2022-11-16T17:29:44.904Z,11.80
2022-11-16T17:32:13.594Z,10.25
2022-11-16T17:34:42.091Z,9.88
2022-11-16T17:37:10.559Z,9.15
2022-11-16T17:39:39.210Z,9.70
2022-11-16T17:42:09.069Z,7.05
2022-11-16T17:44:37.781Z,9.80
2022-11-16T17:47:07.491Z,6.00
2022-11-16T17:49:36.204Z,7.20
2022-11-16T17:52:05.152Z,5.97
2022-11-16T17:54:33.873Z,9.93
2022-11-16T17:57:02.355Z,9.05
2022-11-16T17:59:32.220Z,7.47
2022-11-16T18:02:00.884Z,7.53
2022-11-16T18:04:29.376Z,6.18
2022-11-16T18:06:59.726Z,6.78
2022-11-16T18:09:28.300Z,6.78
2022-11-16T18:11:57.107Z,7.45
2022-11-16T18:14:25.709Z,7.57
2022-11-16T18:16:55.555Z,4.85
2022-11-16T18:19:24.348Z,10.13
2022-11-16T18:21:52.894Z,8.05
2022-11-16T18:24:21.611Z,8.90
2022-11-16T18:26:50.099Z,12.68
2022-11-16T18:29:19.949Z,20.73
2022-11-16T18:31:48.404Z,18.52
2022-11-16T18:34:19.462Z,21.45
2022-11-16T18:36:49.148Z,22.20
2022-11-16T18:39:18.000Z,18.58
2022-11-16T18:41:53.365Z,21.17
2022-11-16T18:44:23.923Z,18.77
2022-11-16T18:46:52.668Z,16.13
2022-11-16T18:49:22.545Z,34.30
2022-11-16T18:51:50.997Z,37.72
2022-11-16T18:54:19.682Z,30.30
2022-11-16T18:56:49.278Z,23.70
2022-11-16T18:59:17.879Z,24.45
2022-11-16T19:01:46.371Z,17.10
2022-11-16T19:04:15.398Z,21.13
2022-11-16T19:06:45.522Z,20.38
2022-11-16T19:09:14.304Z,17.25
2022-11-16T19:11:42.786Z,18.90
2022-11-16T19:14:11.398Z,21.35
2022-11-16T19:16:47.235Z,21.65
2022-11-16T19:19:18.787Z,12.73
2022-11-16T19:21:48.900Z,15.00
2022-11-16T19:24:17.558Z,11.68
2022-11-16T19:26:46.059Z,13.48
2022-11-16T19:29:14.790Z,12.80
2022-11-16T19:31:43.530Z,13.30
2022-11-16T19:34:14.321Z,12.18
2022-11-16T19:36:42.810Z,15.50
2022-11-16T19:39:12.755Z,19.63
2022-11-16T19:41:41.235Z,22.15
2022-11-16T19:44:09.696Z,25.95
2022-11-16T19:46:38.306Z,32.08
2022-11-16T19:49:08.687Z,31.27
2022-11-16T19:51:37.761Z,27.30
2022-11-16T19:54:06.881Z,24.05
2022-11-16T19:56:36.707Z,23.15
2022-11-16T19:59:05.436Z,20.55
2022-11-16T20:01:34.173Z,16.25
2022-11-16T20:04:04.287Z,17.27
2022-11-16T20:06:35.388Z,17.25
2022-11-16T20:09:09.020Z,17.23
2022-11-16T20:11:41.094Z,18.48
2022-11-16T20:14:13.751Z,18.80
2022-11-16T20:16:44.412Z,14.52
2022-11-16T20:19:13.325Z,14.77
2022-11-16T20:21:44.088Z,16.13
2022-11-16T20:24:16.098Z,15.80
2022-11-16T20:26:48.032Z,12.85
2022-11-16T20:29:19.452Z,13.27
2022-11-16T20:31:48.305Z,14.35
2022-11-16T20:34:20.478Z,11.95
2022-11-16T20:36:50.975Z,11.48
2022-11-16T20:39:21.524Z,10.68
2022-11-16T20:41:51.613Z,9.50
2022-11-16T20:44:22.945Z,20.00
2022-11-16T20:46:53.215Z,17.35
2022-11-16T20:49:21.838Z,15.10
2022-11-16T20:51:51.314Z,13.23
2022-11-16T20:54:19.793Z,15.95
2022-11-16T20:56:49.657Z,17.67
2022-11-16T20:59:19.828Z,22.25
2022-11-16T21:01:48.862Z,19.83
2022-11-16T21:04:18.117Z,22.15
2022-11-16T21:06:46.838Z,22.65
2022-11-16T21:09:22.377Z,19.03
2022-11-16T21:12:08.698Z,20.02
2022-11-16T21:14:38.578Z,18.77
2022-11-16T21:17:07.036Z,17.85
2022-11-16T21:19:35.518Z,19.17
2022-11-16T21:22:04.016Z,19.73
2022-11-16T21:24:32.486Z,17.50
2022-11-16T21:27:00.931Z,17.50
2022-11-16T21:29:30.686Z,17.65
2022-11-16T21:32:00.559Z,18.08
2022-11-16T21:34:34.616Z,18.87
2022-11-16T21:37:05.835Z,18.63
2022-11-16T21:39:34.303Z,17.63
2022-11-16T21:42:02.795Z,16.65
2022-11-16T21:44:41.935Z,16.10
2022-11-16T21:47:12.947Z,19.02
2022-11-16T21:50:00.876Z,18.85
2022-11-16T21:52:30.289Z,16.67
2022-11-16T21:55:01.897Z,16.92
2022-11-16T21:57:30.394Z,14.98
2022-11-16T22:00:01.238Z,23.52
2022-11-16T22:02:31.097Z,25.67
2022-11-16T22:05:17.334Z,24.70
2022-11-16T22:07:45.836Z,16.52
2022-11-16T22:10:14.788Z,19.05
2022-11-16T22:12:43.235Z,17.42
2022-11-16T22:15:12.574Z,19.67
2022-11-16T22:17:44.798Z,17.40
2022-11-16T22:20:13.848Z,19.05
2022-11-16T22:22:42.547Z,15.85
2022-11-16T22:25:13.868Z,15.80
2022-11-16T22:28:13.432Z,17.10
2022-11-16T22:30:31.479Z,15.57
2022-11-16T22:33:01.548Z,14.60
2022-11-16T22:35:30.253Z,17.08
2022-11-16T22:37:59.937Z,14.93
2022-11-16T22:40:28.390Z,16.05
2022-11-16T22:42:58.989Z,15.55
2022-11-16T22:45:27.908Z,17.67
2022-11-16T22:47:56.686Z,15.93
2022-11-16T22:50:26.557Z,16.05
2022-11-16T22:52:55.012Z,16.77
2022-11-16T22:55:23.476Z,16.42
2022-11-16T22:57:52.340Z,14.23
2022-11-16T23:00:21.471Z,16.25
2022-11-16T23:02:49.972Z,16.00
2022-11-16T23:05:18.539Z,19.17
2022-11-16T23:07:48.452Z,18.75
2022-11-16T23:10:18.063Z,20.67
2022-11-16T23:13:03.945Z,17.73
2022-11-16T23:15:49.275Z,17.57
2022-11-16T23:18:19.623Z,16.52
2022-11-16T23:21:05.927Z,17.75
2022-11-16T23:23:49.608Z,16.50
2022-11-16T23:26:42.363Z,16.27
2022-11-16T23:29:12.509Z,15.40
2022-11-16T23:31:41.213Z,20.08
2022-11-16T23:34:09.686Z,21.20
2022-11-16T23:36:38.380Z,18.08
2022-11-16T23:39:08.493Z,15.07
2022-11-16T23:41:50.809Z,15.20
2022-11-16T23:44:19.298Z,16.92
2022-11-16T23:46:47.792Z,28.55
2022-11-16T23:49:16.243Z,14.82
2022-11-16T23:51:44.745Z,12.82
2022-11-16T23:54:14.620Z,9.27
2022-11-16T23:56:43.089Z,9.50
2022-11-16T23:59:11.526Z,10.60
